sensor_id;sensor_type;location;lat;lon;timestamp;P1;durP1;ratioP1;P2;durP2;ratioP2
16440;SDS011;8330;-33.858;151.184;2022-08-19T00:00:28;3.40;;;0.90;;
16440;SDS011;8330;-33.858;151.184;2022-08-19T00:02:58;1.13;;;0.75;;
16440;SDS011;8330;-33.858;151.184;2022-08-19T00:05:29;0.50;;;0.50;;
16440;SDS011;8330;-33.858;151.184;2022-08-19T00:08:00;0.57;;;0.57;;
16440;SDS011;8330;-33.858;151.184;2022-08-19T00:10:31;0.65;;;0.57;;
16440;SDS011;8330;-33.858;151.184;2022-08-19T00:13:02;1.85;;;0.43;;
16440;SDS011;8330;-33.858;151.184;2022-08-19T00:15:35;2.17;;;0.60;;
16440;SDS011;8330;-33.858;151.184;2022-08-19T00:18:10;0.68;;;0.50;;
16440;SDS011;8330;-33.858;151.184;2022-08-19T00:20:41;1.00;;;0.47;;
16440;SDS011;8330;-33.858;151.184;2022-08-19T00:23:12;2.03;;;0.50;;
16440;SDS011;8330;-33.858;151.184;2022-08-19T00:25:43;1.65;;;0.57;;
16440;SDS011;8330;-33.858;151.184;2022-08-19T00:28:14;2.03;;;0.45;;
16440;SDS011;8330;-33.858;151.184;2022-08-19T00:30:46;0.75;;;0.60;;
16440;SDS011;8330;-33.858;151.184;2022-08-19T00:33:17;0.98;;;0.60;;
16440;SDS011;8330;-33.858;151.184;2022-08-19T00:35:48;2.45;;;0.50;;
16440;SDS011;8330;-33.858;151.184;2022-08-19T00:38:19;0.90;;;0.50;;
16440;SDS011;8330;-33.858;151.184;2022-08-19T00:40:50;1.50;;;0.95;;
16440;SDS011;8330;-33.858;151.184;2022-08-19T00:43:21;1.20;;;0.47;;
16440;SDS011;8330;-33.858;151.184;2022-08-19T00:45:56;3.50;;;0.43;;
16440;SDS011;8330;-33.858;151.184;2022-08-19T00:48:27;2.30;;;0.40;;
16440;SDS011;8330;-33.858;151.184;2022-08-19T00:50:58;2.53;;;0.65;;
16440;SDS011;8330;-33.858;151.184;2022-08-19T00:53:29;0.70;;;0.50;;
16440;SDS011;8330;-33.858;151.184;2022-08-19T00:56:01;1.83;;;0.60;;
16440;SDS011;8330;-33.858;151.184;2022-08-19T00:58:34;1.27;;;0.47;;
16440;SDS011;8330;-33.858;151.184;2022-08-19T01:01:09;1.10;;;0.60;;
16440;SDS011;8330;-33.858;151.184;2022-08-19T01:03:40;1.27;;;0.40;;
16440;SDS011;8330;-33.858;151.184;2022-08-19T01:06:10;0.65;;;0.40;;
16440;SDS011;8330;-33.858;151.184;2022-08-19T01:08:41;1.48;;;0.60;;
16440;SDS011;8330;-33.858;151.184;2022-08-19T01:11:12;0.93;;;0.40;;
16440;SDS011;8330;-33.858;151.184;2022-08-19T01:13:45;0.47;;;0.47;;
16440;SDS011;8330;-33.858;151.184;2022-08-19T01:16:18;1.45;;;0.38;;
16440;SDS011;8330;-33.858;151.184;2022-08-19T01:18:52;0.50;;;0.40;;
16440;SDS011;8330;-33.858;151.184;2022-08-19T01:21:24;0.60;;;0.40;;
16440;SDS011;8330;-33.858;151.184;2022-08-19T01:24:03;0.70;;;0.50;;
16440;SDS011;8330;-33.858;151.184;2022-08-19T01:26:37;2.40;;;0.50;;
16440;SDS011;8330;-33.858;151.184;2022-08-19T01:29:11;1.35;;;0.40;;
16440;SDS011;8330;-33.858;151.184;2022-08-19T01:31:42;0.88;;;0.43;;
16440;SDS011;8330;-33.858;151.184;2022-08-19T01:34:13;1.40;;;0.40;;
16440;SDS011;8330;-33.858;151.184;2022-08-19T01:36:44;1.70;;;0.50;;
16440;SDS011;8330;-33.858;151.184;2022-08-19T01:39:20;0.30;;;0.30;;
16440;SDS011;8330;-33.858;151.184;2022-08-19T01:41:52;1.10;;;0.40;;
16440;SDS011;8330;-33.858;151.184;2022-08-19T01:44:23;1.08;;;0.40;;
16440;SDS011;8330;-33.858;151.184;2022-08-19T01:46:53;0.52;;;0.40;;
16440;SDS011;8330;-33.858;151.184;2022-08-19T01:49:25;0.30;;;0.30;;
16440;SDS011;8330;-33.858;151.184;2022-08-19T01:51:56;1.05;;;0.38;;
16440;SDS011;8330;-33.858;151.184;2022-08-19T01:54:30;0.50;;;0.30;;
16440;SDS011;8330;-33.858;151.184;2022-08-19T01:57:01;0.82;;;0.30;;
16440;SDS011;8330;-33.858;151.184;2022-08-19T01:59:36;0.50;;;0.10;;
16440;SDS011;8330;-33.858;151.184;2022-08-19T02:02:08;0.75;;;0.30;;
16440;SDS011;8330;-33.858;151.184;2022-08-19T02:04:39;0.22;;;0.22;;
16440;SDS011;8330;-33.858;151.184;2022-08-19T02:07:11;0.20;;;0.20;;
16440;SDS011;8330;-33.858;151.184;2022-08-19T02:09:44;0.20;;;0.20;;
16440;SDS011;8330;-33.858;151.184;2022-08-19T02:12:15;1.50;;;0.47;;
16440;SDS011;8330;-33.858;151.184;2022-08-19T02:14:46;1.27;;;0.30;;
16440;SDS011;8330;-33.858;151.184;2022-08-19T02:17:17;0.73;;;0.38;;
16440;SDS011;8330;-33.858;151.184;2022-08-19T02:19:48;0.43;;;0.30;;
16440;SDS011;8330;-33.858;151.184;2022-08-19T02:22:19;0.47;;;0.25;;
16440;SDS011;8330;-33.858;151.184;2022-08-19T02:24:52;0.40;;;0.28;;
16440;SDS011;8330;-33.858;151.184;2022-08-19T02:27:23;0.30;;;0.30;;
16440;SDS011;8330;-33.858;151.184;2022-08-19T02:29:54;0.73;;;0.40;;
16440;SDS011;8330;-33.858;151.184;2022-08-19T02:32:25;1.75;;;0.30;;
16440;SDS011;8330;-33.858;151.184;2022-08-19T02:34:56;0.20;;;0.20;;
16440;SDS011;8330;-33.858;151.184;2022-08-19T02:37:27;0.90;;;0.32;;
16440;SDS011;8330;-33.858;151.184;2022-08-19T02:40:16;0.40;;;0.40;;
16440;SDS011;8330;-33.858;151.184;2022-08-19T02:42:47;0.50;;;0.40;;
16440;SDS011;8330;-33.858;151.184;2022-08-19T02:45:18;0.50;;;0.40;;
16440;SDS011;8330;-33.858;151.184;2022-08-19T02:47:49;1.40;;;0.50;;
16440;SDS011;8330;-33.858;151.184;2022-08-19T02:50:20;0.55;;;0.45;;
16440;SDS011;8330;-33.858;151.184;2022-08-19T02:52:50;0.88;;;0.40;;
16440;SDS011;8330;-33.858;151.184;2022-08-19T02:55:23;0.30;;;0.30;;
16440;SDS011;8330;-33.858;151.184;2022-08-19T02:57:54;0.57;;;0.50;;
16440;SDS011;8330;-33.858;151.184;2022-08-19T03:00:25;0.90;;;0.63;;
16440;SDS011;8330;-33.858;151.184;2022-08-19T03:02:56;0.68;;;0.50;;
16440;SDS011;8330;-33.858;151.184;2022-08-19T03:05:27;0.60;;;0.47;;
16440;SDS011;8330;-33.858;151.184;2022-08-19T03:07:58;0.82;;;0.40;;
16440;SDS011;8330;-33.858;151.184;2022-08-19T03:10:31;0.82;;;0.43;;
16440;SDS011;8330;-33.858;151.184;2022-08-19T03:13:02;1.48;;;0.57;;
16440;SDS011;8330;-33.858;151.184;2022-08-19T03:15:33;3.90;;;1.00;;
16440;SDS011;8330;-33.858;151.184;2022-08-19T03:18:07;0.73;;;0.73;;
16440;SDS011;8330;-33.858;151.184;2022-08-19T03:20:42;1.55;;;0.57;;
16440;SDS011;8330;-33.858;151.184;2022-08-19T03:23:14;0.70;;;0.40;;
16440;SDS011;8330;-33.858;151.184;2022-08-19T03:25:47;0.40;;;0.38;;
16440;SDS011;8330;-33.858;151.184;2022-08-19T03:28:19;1.50;;;0.63;;
16440;SDS011;8330;-33.858;151.184;2022-08-19T03:30:56;1.65;;;0.47;;
16440;SDS011;8330;-33.858;151.184;2022-08-19T03:33:28;0.95;;;0.63;;
16440;SDS011;8330;-33.858;151.184;2022-08-19T03:36:02;0.65;;;0.57;;
16440;SDS011;8330;-33.858;151.184;2022-08-19T03:38:35;2.15;;;0.52;;
16440;SDS011;8330;-33.858;151.184;2022-08-19T03:41:10;1.65;;;0.50;;
16440;SDS011;8330;-33.858;151.184;2022-08-19T03:43:42;0.40;;;0.38;;
16440;SDS011;8330;-33.858;151.184;2022-08-19T03:46:14;0.32;;;0.32;;
16440;SDS011;8330;-33.858;151.184;2022-08-19T03:48:47;0.98;;;0.50;;
16440;SDS011;8330;-33.858;151.184;2022-08-19T03:51:20;0.55;;;0.40;;
16440;SDS011;8330;-33.858;151.184;2022-08-19T03:53:54;1.67;;;0.60;;
16440;SDS011;8330;-33.858;151.184;2022-08-19T03:56:27;2.22;;;0.32;;
16440;SDS011;8330;-33.858;151.184;2022-08-19T03:58:58;0.43;;;0.40;;
16440;SDS011;8330;-33.858;151.184;2022-08-19T04:01:29;0.30;;;0.28;;
16440;SDS011;8330;-33.858;151.184;2022-08-19T04:04:00;0.47;;;0.30;;
16440;SDS011;8330;-33.858;151.184;2022-08-19T04:06:32;0.32;;;0.32;;
16440;SDS011;8330;-33.858;151.184;2022-08-19T04:09:05;0.60;;;0.30;;
16440;SDS011;8330;-33.858;151.184;2022-08-19T04:11:39;0.52;;;0.20;;
16440;SDS011;8330;-33.858;151.184;2022-08-19T04:14:16;0.40;;;0.35;;
16440;SDS011;8330;-33.858;151.184;2022-08-19T04:16:48;1.00;;;0.80;;
16440;SDS011;8330;-33.858;151.184;2022-08-19T04:19:19;2.47;;;1.85;;
16440;SDS011;8330;-33.858;151.184;2022-08-19T04:21:52;2.55;;;1.27;;
16440;SDS011;8330;-33.858;151.184;2022-08-19T04:24:23;2.47;;;0.80;;
16440;SDS011;8330;-33.858;151.184;2022-08-19T04:26:56;0.40;;;0.40;;
16440;SDS011;8330;-33.858;151.184;2022-08-19T04:29:28;0.35;;;0.32;;
16440;SDS011;8330;-33.858;151.184;2022-08-19T04:31:59;0.30;;;0.30;;
16440;SDS011;8330;-33.858;151.184;2022-08-19T04:34:32;0.43;;;0.40;;
16440;SDS011;8330;-33.858;151.184;2022-08-19T04:37:04;0.65;;;0.47;;
16440;SDS011;8330;-33.858;151.184;2022-08-19T04:39:37;0.50;;;0.50;;
16440;SDS011;8330;-33.858;151.184;2022-08-19T04:42:32;0.45;;;0.35;;
16440;SDS011;8330;-33.858;151.184;2022-08-19T04:45:09;0.30;;;0.30;;
16440;SDS011;8330;-33.858;151.184;2022-08-19T04:47:42;2.42;;;0.40;;
16440;SDS011;8330;-33.858;151.184;2022-08-19T04:50:13;2.22;;;0.40;;
16440;SDS011;8330;-33.858;151.184;2022-08-19T04:52:44;0.55;;;0.30;;
16440;SDS011;8330;-33.858;151.184;2022-08-19T04:55:15;3.53;;;0.40;;
16440;SDS011;8330;-33.858;151.184;2022-08-19T04:57:48;1.63;;;0.17;;
16440;SDS011;8330;-33.858;151.184;2022-08-19T05:00:19;0.43;;;0.40;;
16440;SDS011;8330;-33.858;151.184;2022-08-19T05:02:49;0.47;;;0.40;;
16440;SDS011;8330;-33.858;151.184;2022-08-19T05:05:20;1.92;;;0.50;;
16440;SDS011;8330;-33.858;151.184;2022-08-19T05:07:51;0.85;;;0.35;;
16440;SDS011;8330;-33.858;151.184;2022-08-19T05:10:22;0.30;;;0.30;;
16440;SDS011;8330;-33.858;151.184;2022-08-19T05:12:55;1.40;;;0.32;;
16440;SDS011;8330;-33.858;151.184;2022-08-19T05:15:26;0.65;;;0.38;;
16440;SDS011;8330;-33.858;151.184;2022-08-19T05:17:56;2.88;;;0.40;;
16440;SDS011;8330;-33.858;151.184;2022-08-19T05:20:43;1.52;;;0.80;;
16440;SDS011;8330;-33.858;151.184;2022-08-19T05:23:29;2.58;;;0.68;;
16440;SDS011;8330;-33.858;151.184;2022-08-19T05:26:00;1.08;;;0.40;;
16440;SDS011;8330;-33.858;151.184;2022-08-19T05:28:33;3.50;;;0.45;;
16440;SDS011;8330;-33.858;151.184;2022-08-19T05:31:04;0.80;;;0.40;;
16440;SDS011;8330;-33.858;151.184;2022-08-19T05:33:35;0.50;;;0.38;;
16440;SDS011;8330;-33.858;151.184;2022-08-19T05:36:07;0.73;;;0.43;;
16440;SDS011;8330;-33.858;151.184;2022-08-19T05:38:38;2.25;;;0.50;;
16440;SDS011;8330;-33.858;151.184;2022-08-19T05:41:09;0.57;;;0.40;;
16440;SDS011;8330;-33.858;151.184;2022-08-19T05:43:42;1.10;;;0.38;;
16440;SDS011;8330;-33.858;151.184;2022-08-19T05:46:16;1.30;;;0.60;;
16440;SDS011;8330;-33.858;151.184;2022-08-19T05:48:48;1.27;;;1.10;;
16440;SDS011;8330;-33.858;151.184;2022-08-19T05:51:19;4.05;;;1.05;;
16440;SDS011;8330;-33.858;151.184;2022-08-19T05:53:52;0.55;;;0.50;;
16440;SDS011;8330;-33.858;151.184;2022-08-19T05:56:24;3.53;;;0.60;;
16440;SDS011;8330;-33.858;151.184;2022-08-19T05:58:58;1.30;;;0.60;;
16440;SDS011;8330;-33.858;151.184;2022-08-19T06:01:30;0.65;;;0.25;;
16440;SDS011;8330;-33.858;151.184;2022-08-19T06:04:01;0.57;;;0.20;;
16440;SDS011;8330;-33.858;151.184;2022-08-19T06:06:32;1.67;;;0.10;;
16440;SDS011;8330;-33.858;151.184;2022-08-19T06:09:04;0.10;;;0.10;;
16440;SDS011;8330;-33.858;151.184;2022-08-19T06:11:37;0.10;;;0.10;;
16440;SDS011;8330;-33.858;151.184;2022-08-19T06:14:12;3.72;;;1.33;;
16440;SDS011;8330;-33.858;151.184;2022-08-19T06:16:44;1.30;;;0.40;;
16440;SDS011;8330;-33.858;151.184;2022-08-19T06:19:17;0.22;;;0.22;;
16440;SDS011;8330;-33.858;151.184;2022-08-19T06:21:50;2.40;;;0.60;;
16440;SDS011;8330;-33.858;151.184;2022-08-19T06:24:22;0.40;;;0.20;;
16440;SDS011;8330;-33.858;151.184;2022-08-19T06:26:54;1.48;;;0.30;;
16440;SDS011;8330;-33.858;151.184;2022-08-19T06:29:27;1.45;;;0.40;;
16440;SDS011;8330;-33.858;151.184;2022-08-19T06:31:59;0.30;;;0.30;;
16440;SDS011;8330;-33.858;151.184;2022-08-19T06:34:32;2.33;;;0.28;;
16440;SDS011;8330;-33.858;151.184;2022-08-19T06:37:03;0.90;;;0.20;;
16440;SDS011;8330;-33.858;151.184;2022-08-19T06:39:34;0.88;;;0.30;;
16440;SDS011;8330;-33.858;151.184;2022-08-19T06:42:06;0.38;;;0.30;;
16440;SDS011;8330;-33.858;151.184;2022-08-19T06:44:40;1.50;;;0.30;;
16440;SDS011;8330;-33.858;151.184;2022-08-19T06:47:12;5.30;;;1.52;;
16440;SDS011;8330;-33.858;151.184;2022-08-19T06:49:44;8.45;;;1.52;;
16440;SDS011;8330;-33.858;151.184;2022-08-19T06:52:15;9.57;;;1.67;;
16440;SDS011;8330;-33.858;151.184;2022-08-19T06:54:46;7.15;;;1.45;;
16440;SDS011;8330;-33.858;151.184;2022-08-19T06:57:16;10.68;;;1.98;;
16440;SDS011;8330;-33.858;151.184;2022-08-19T06:59:49;9.35;;;1.60;;
16440;SDS011;8330;-33.858;151.184;2022-08-19T07:02:21;5.45;;;1.30;;
16440;SDS011;8330;-33.858;151.184;2022-08-19T07:04:52;8.18;;;1.35;;
16440;SDS011;8330;-33.858;151.184;2022-08-19T07:07:24;4.47;;;1.10;;
16440;SDS011;8330;-33.858;151.184;2022-08-19T07:09:54;5.55;;;1.20;;
16440;SDS011;8330;-33.858;151.184;2022-08-19T07:12:26;4.15;;;1.17;;
16440;SDS011;8330;-33.858;151.184;2022-08-19T07:15:00;2.78;;;1.08;;
16440;SDS011;8330;-33.858;151.184;2022-08-19T07:17:32;4.72;;;1.10;;
16440;SDS011;8330;-33.858;151.184;2022-08-19T07:20:05;2.60;;;1.02;;
16440;SDS011;8330;-33.858;151.184;2022-08-19T07:22:36;2.90;;;1.20;;
16440;SDS011;8330;-33.858;151.184;2022-08-19T07:25:08;3.17;;;1.10;;
16440;SDS011;8330;-33.858;151.184;2022-08-19T07:27:40;5.00;;;1.40;;
16440;SDS011;8330;-33.858;151.184;2022-08-19T07:30:13;2.88;;;1.00;;
16440;SDS011;8330;-33.858;151.184;2022-08-19T07:32:43;3.42;;;1.02;;
16440;SDS011;8330;-33.858;151.184;2022-08-19T07:35:16;5.07;;;0.90;;
16440;SDS011;8330;-33.858;151.184;2022-08-19T07:37:47;1.63;;;0.80;;
16440;SDS011;8330;-33.858;151.184;2022-08-19T07:40:18;5.03;;;1.00;;
16440;SDS011;8330;-33.858;151.184;2022-08-19T07:42:49;1.45;;;0.70;;
16440;SDS011;8330;-33.858;151.184;2022-08-19T07:45:22;3.28;;;1.58;;
16440;SDS011;8330;-33.858;151.184;2022-08-19T07:47:53;1.85;;;1.20;;
16440;SDS011;8330;-33.858;151.184;2022-08-19T07:50:45;4.13;;;1.60;;
16440;SDS011;8330;-33.858;151.184;2022-08-19T07:53:19;3.85;;;1.00;;
16440;SDS011;8330;-33.858;151.184;2022-08-19T07:56:23;2.25;;;1.15;;
16440;SDS011;8330;-33.858;151.184;2022-08-19T07:59:08;3.08;;;0.80;;
16440;SDS011;8330;-33.858;151.184;2022-08-19T08:01:44;1.83;;;0.65;;
16440;SDS011;8330;-33.858;151.184;2022-08-19T08:04:16;2.22;;;0.70;;
16440;SDS011;8330;-33.858;151.184;2022-08-19T08:07:06;2.55;;;0.60;;
16440;SDS011;8330;-33.858;151.184;2022-08-19T08:09:53;2.08;;;0.70;;
16440;SDS011;8330;-33.858;151.184;2022-08-19T08:12:25;1.33;;;0.70;;
16440;SDS011;8330;-33.858;151.184;2022-08-19T08:14:58;1.40;;;0.90;;
16440;SDS011;8330;-33.858;151.184;2022-08-19T08:17:32;0.98;;;0.75;;
16440;SDS011;8330;-33.858;151.184;2022-08-19T08:20:03;2.35;;;1.10;;
16440;SDS011;8330;-33.858;151.184;2022-08-19T08:22:35;3.08;;;1.55;;
16440;SDS011;8330;-33.858;151.184;2022-08-19T08:25:22;2.80;;;0.50;;
16440;SDS011;8330;-33.858;151.184;2022-08-19T08:27:53;1.73;;;0.75;;
16440;SDS011;8330;-33.858;151.184;2022-08-19T08:30:26;1.30;;;0.70;;
16440;SDS011;8330;-33.858;151.184;2022-08-19T08:33:03;4.28;;;1.10;;
16440;SDS011;8330;-33.858;151.184;2022-08-19T08:35:34;1.73;;;0.90;;
16440;SDS011;8330;-33.858;151.184;2022-08-19T08:38:05;2.70;;;1.20;;
16440;SDS011;8330;-33.858;151.184;2022-08-19T08:40:38;1.55;;;0.80;;
16440;SDS011;8330;-33.858;151.184;2022-08-19T08:43:19;2.25;;;0.70;;
16440;SDS011;8330;-33.858;151.184;2022-08-19T08:46:00;7.18;;;2.03;;
16440;SDS011;8330;-33.858;151.184;2022-08-19T08:48:37;2.13;;;0.93;;
16440;SDS011;8330;-33.858;151.184;2022-08-19T08:51:14;3.60;;;1.50;;
16440;SDS011;8330;-33.858;151.184;2022-08-19T08:53:49;2.65;;;1.33;;
16440;SDS011;8330;-33.858;151.184;2022-08-19T08:56:21;3.30;;;1.60;;
16440;SDS011;8330;-33.858;151.184;2022-08-19T08:58:54;4.28;;;1.95;;
16440;SDS011;8330;-33.858;151.184;2022-08-19T09:01:28;4.50;;;1.63;;
16440;SDS011;8330;-33.858;151.184;2022-08-19T09:04:00;2.78;;;1.48;;
16440;SDS011;8330;-33.858;151.184;2022-08-19T09:06:36;4.93;;;2.60;;
16440;SDS011;8330;-33.858;151.184;2022-08-19T09:09:14;6.25;;;2.83;;
16440;SDS011;8330;-33.858;151.184;2022-08-19T09:11:50;9.70;;;3.92;;
16440;SDS011;8330;-33.858;151.184;2022-08-19T09:14:32;8.05;;;3.35;;
16440;SDS011;8330;-33.858;151.184;2022-08-19T09:17:07;3.47;;;1.70;;
16440;SDS011;8330;-33.858;151.184;2022-08-19T09:19:49;5.07;;;2.67;;
16440;SDS011;8330;-33.858;151.184;2022-08-19T09:22:21;6.13;;;3.53;;
16440;SDS011;8330;-33.858;151.184;2022-08-19T09:24:53;2.15;;;1.73;;
16440;SDS011;8330;-33.858;151.184;2022-08-19T09:27:24;4.68;;;2.85;;
16440;SDS011;8330;-33.858;151.184;2022-08-19T09:29:55;21.00;;;13.13;;
16440;SDS011;8330;-33.858;151.184;2022-08-19T09:32:26;5.60;;;3.17;;
16440;SDS011;8330;-33.858;151.184;2022-08-19T09:34:59;4.55;;;2.58;;
16440;SDS011;8330;-33.858;151.184;2022-08-19T09:37:30;3.88;;;2.28;;
16440;SDS011;8330;-33.858;151.184;2022-08-19T09:40:04;5.53;;;1.98;;
16440;SDS011;8330;-33.858;151.184;2022-08-19T09:42:35;4.90;;;2.35;;
16440;SDS011;8330;-33.858;151.184;2022-08-19T09:45:07;6.05;;;3.10;;
16440;SDS011;8330;-33.858;151.184;2022-08-19T09:47:38;2.72;;;1.80;;
16440;SDS011;8330;-33.858;151.184;2022-08-19T09:50:11;7.40;;;2.60;;
16440;SDS011;8330;-33.858;151.184;2022-08-19T09:52:44;3.80;;;2.00;;
16440;SDS011;8330;-33.858;151.184;2022-08-19T09:55:15;4.43;;;2.20;;
16440;SDS011;8330;-33.858;151.184;2022-08-19T09:57:46;3.03;;;1.80;;
16440;SDS011;8330;-33.858;151.184;2022-08-19T10:00:17;4.43;;;2.80;;
16440;SDS011;8330;-33.858;151.184;2022-08-19T10:02:48;5.35;;;2.65;;
16440;SDS011;8330;-33.858;151.184;2022-08-19T10:05:20;4.65;;;1.80;;
16440;SDS011;8330;-33.858;151.184;2022-08-19T10:08:07;2.20;;;1.70;;
16440;SDS011;8330;-33.858;151.184;2022-08-19T10:10:38;3.90;;;2.00;;
16440;SDS011;8330;-33.858;151.184;2022-08-19T10:13:10;3.60;;;2.10;;
16440;SDS011;8330;-33.858;151.184;2022-08-19T10:15:42;9.80;;;3.92;;
16440;SDS011;8330;-33.858;151.184;2022-08-19T10:18:13;5.35;;;2.38;;
16440;SDS011;8330;-33.858;151.184;2022-08-19T10:20:47;3.53;;;1.75;;
16440;SDS011;8330;-33.858;151.184;2022-08-19T10:23:19;3.25;;;1.90;;
16440;SDS011;8330;-33.858;151.184;2022-08-19T10:25:50;3.38;;;2.03;;
16440;SDS011;8330;-33.858;151.184;2022-08-19T10:28:21;3.13;;;1.80;;
16440;SDS011;8330;-33.858;151.184;2022-08-19T10:30:52;4.50;;;2.40;;
16440;SDS011;8330;-33.858;151.184;2022-08-19T10:33:23;5.20;;;2.40;;
16440;SDS011;8330;-33.858;151.184;2022-08-19T10:36:00;4.07;;;2.80;;
16440;SDS011;8330;-33.858;151.184;2022-08-19T10:38:32;3.15;;;1.77;;
16440;SDS011;8330;-33.858;151.184;2022-08-19T10:41:10;3.05;;;2.33;;
16440;SDS011;8330;-33.858;151.184;2022-08-19T10:43:42;2.17;;;1.58;;
16440;SDS011;8330;-33.858;151.184;2022-08-19T10:46:14;2.30;;;1.63;;
16440;SDS011;8330;-33.858;151.184;2022-08-19T10:48:45;5.38;;;1.92;;
16440;SDS011;8330;-33.858;151.184;2022-08-19T10:51:21;3.97;;;2.47;;
16440;SDS011;8330;-33.858;151.184;2022-08-19T10:54:08;6.20;;;2.85;;
16440;SDS011;8330;-33.858;151.184;2022-08-19T10:56:39;4.53;;;2.80;;
16440;SDS011;8330;-33.858;151.184;2022-08-19T10:59:21;3.78;;;2.72;;
16440;SDS011;8330;-33.858;151.184;2022-08-19T11:01:54;3.83;;;2.58;;
16440;SDS011;8330;-33.858;151.184;2022-08-19T11:04:29;6.78;;;2.85;;
16440;SDS011;8330;-33.858;151.184;2022-08-19T11:07:02;3.72;;;2.30;;
16440;SDS011;8330;-33.858;151.184;2022-08-19T11:09:36;3.97;;;2.38;;
16440;SDS011;8330;-33.858;151.184;2022-08-19T11:12:09;2.45;;;2.15;;
16440;SDS011;8330;-33.858;151.184;2022-08-19T11:14:41;5.18;;;2.28;;
16440;SDS011;8330;-33.858;151.184;2022-08-19T11:17:12;4.45;;;2.13;;
16440;SDS011;8330;-33.858;151.184;2022-08-19T11:19:43;2.85;;;2.10;;
16440;SDS011;8330;-33.858;151.184;2022-08-19T11:22:17;4.50;;;2.40;;
16440;SDS011;8330;-33.858;151.184;2022-08-19T11:24:48;3.78;;;2.15;;
16440;SDS011;8330;-33.858;151.184;2022-08-19T11:27:19;3.60;;;2.20;;
16440;SDS011;8330;-33.858;151.184;2022-08-19T11:29:49;3.38;;;2.22;;
16440;SDS011;8330;-33.858;151.184;2022-08-19T11:32:21;3.58;;;2.50;;
16440;SDS011;8330;-33.858;151.184;2022-08-19T11:34:51;5.45;;;2.42;;
16440;SDS011;8330;-33.858;151.184;2022-08-19T11:37:24;3.13;;;2.03;;
16440;SDS011;8330;-33.858;151.184;2022-08-19T11:39:55;3.42;;;2.35;;
16440;SDS011;8330;-33.858;151.184;2022-08-19T11:42:26;4.18;;;2.10;;
16440;SDS011;8330;-33.858;151.184;2022-08-19T11:45:13;3.15;;;2.10;;
16440;SDS011;8330;-33.858;151.184;2022-08-19T11:47:44;2.60;;;1.80;;
16440;SDS011;8330;-33.858;151.184;2022-08-19T11:50:15;3.15;;;1.85;;
16440;SDS011;8330;-33.858;151.184;2022-08-19T11:52:48;2.90;;;1.63;;
16440;SDS011;8330;-33.858;151.184;2022-08-19T11:55:20;2.05;;;1.70;;
16440;SDS011;8330;-33.858;151.184;2022-08-19T11:57:51;2.38;;;1.90;;
16440;SDS011;8330;-33.858;151.184;2022-08-19T12:00:22;2.13;;;1.80;;
16440;SDS011;8330;-33.858;151.184;2022-08-19T12:02:53;3.13;;;2.13;;
16440;SDS011;8330;-33.858;151.184;2022-08-19T12:05:23;3.20;;;2.00;;
16440;SDS011;8330;-33.858;151.184;2022-08-19T12:07:57;2.50;;;2.10;;
16440;SDS011;8330;-33.858;151.184;2022-08-19T12:10:28;2.05;;;1.67;;
16440;SDS011;8330;-33.858;151.184;2022-08-19T12:12:59;3.00;;;2.05;;
16440;SDS011;8330;-33.858;151.184;2022-08-19T12:15:30;2.58;;;1.98;;
16440;SDS011;8330;-33.858;151.184;2022-08-19T12:18:07;1.92;;;1.40;;
16440;SDS011;8330;-33.858;151.184;2022-08-19T12:20:40;1.88;;;1.33;;
16440;SDS011;8330;-33.858;151.184;2022-08-19T12:23:14;1.60;;;1.50;;
16440;SDS011;8330;-33.858;151.184;2022-08-19T12:25:46;2.95;;;1.50;;
16440;SDS011;8330;-33.858;151.184;2022-08-19T12:28:18;1.40;;;1.30;;
16440;SDS011;8330;-33.858;151.184;2022-08-19T12:30:51;1.77;;;1.48;;
16440;SDS011;8330;-33.858;151.184;2022-08-19T12:33:22;1.40;;;1.30;;
16440;SDS011;8330;-33.858;151.184;2022-08-19T12:35:54;1.80;;;1.38;;
16440;SDS011;8330;-33.858;151.184;2022-08-19T12:38:31;1.83;;;1.30;;
16440;SDS011;8330;-33.858;151.184;2022-08-19T12:41:03;1.50;;;1.30;;
16440;SDS011;8330;-33.858;151.184;2022-08-19T12:43:34;2.42;;;1.88;;
16440;SDS011;8330;-33.858;151.184;2022-08-19T12:46:06;1.70;;;1.30;;
16440;SDS011;8330;-33.858;151.184;2022-08-19T12:48:37;2.03;;;1.40;;
16440;SDS011;8330;-33.858;151.184;2022-08-19T12:51:11;2.65;;;1.40;;
16440;SDS011;8330;-33.858;151.184;2022-08-19T12:53:48;3.03;;;1.40;;
16440;SDS011;8330;-33.858;151.184;2022-08-19T12:56:20;3.55;;;1.42;;
16440;SDS011;8330;-33.858;151.184;2022-08-19T12:58:51;1.83;;;1.40;;
16440;SDS011;8330;-33.858;151.184;2022-08-19T13:01:22;2.88;;;1.50;;
16440;SDS011;8330;-33.858;151.184;2022-08-19T13:03:53;2.40;;;1.40;;
16440;SDS011;8330;-33.858;151.184;2022-08-19T13:06:24;2.80;;;1.33;;
16440;SDS011;8330;-33.858;151.184;2022-08-19T13:08:57;2.53;;;1.30;;
16440;SDS011;8330;-33.858;151.184;2022-08-19T13:11:28;3.55;;;1.50;;
16440;SDS011;8330;-33.858;151.184;2022-08-19T13:13:59;2.00;;;1.20;;
16440;SDS011;8330;-33.858;151.184;2022-08-19T13:16:31;4.07;;;1.45;;
16440;SDS011;8330;-33.858;151.184;2022-08-19T13:19:02;3.10;;;1.42;;
16440;SDS011;8330;-33.858;151.184;2022-08-19T13:21:33;3.67;;;1.58;;
16440;SDS011;8330;-33.858;151.184;2022-08-19T13:24:06;3.95;;;1.55;;
16440;SDS011;8330;-33.858;151.184;2022-08-19T13:26:37;2.20;;;1.60;;
16440;SDS011;8330;-33.858;151.184;2022-08-19T13:29:08;4.35;;;1.35;;
16440;SDS011;8330;-33.858;151.184;2022-08-19T13:31:54;2.78;;;1.33;;
16440;SDS011;8330;-33.858;151.184;2022-08-19T13:34:57;3.33;;;1.40;;
16440;SDS011;8330;-33.858;151.184;2022-08-19T13:37:28;1.77;;;1.10;;
16440;SDS011;8330;-33.858;151.184;2022-08-19T13:40:14;2.50;;;1.13;;
16440;SDS011;8330;-33.858;151.184;2022-08-19T13:42:46;1.92;;;1.10;;
16440;SDS011;8330;-33.858;151.184;2022-08-19T13:45:18;2.75;;;1.23;;
16440;SDS011;8330;-33.858;151.184;2022-08-19T13:47:50;2.72;;;1.20;;
16440;SDS011;8330;-33.858;151.184;2022-08-19T13:50:25;2.42;;;1.10;;
16440;SDS011;8330;-33.858;151.184;2022-08-19T13:52:57;5.53;;;1.17;;
16440;SDS011;8330;-33.858;151.184;2022-08-19T13:55:32;1.42;;;0.95;;
16440;SDS011;8330;-33.858;151.184;2022-08-19T13:58:02;4.25;;;1.30;;
16440;SDS011;8330;-33.858;151.184;2022-08-19T14:00:34;2.22;;;1.05;;
16440;SDS011;8330;-33.858;151.184;2022-08-19T14:03:07;3.47;;;1.30;;
16440;SDS011;8330;-33.858;151.184;2022-08-19T14:05:38;2.58;;;1.20;;
16440;SDS011;8330;-33.858;151.184;2022-08-19T14:08:09;1.60;;;1.10;;
16440;SDS011;8330;-33.858;151.184;2022-08-19T14:10:42;1.70;;;0.90;;
16440;SDS011;8330;-33.858;151.184;2022-08-19T14:13:14;3.13;;;1.27;;
16440;SDS011;8330;-33.858;151.184;2022-08-19T14:15:46;2.80;;;1.23;;
16440;SDS011;8330;-33.858;151.184;2022-08-19T14:18:17;1.95;;;1.10;;
16440;SDS011;8330;-33.858;151.184;2022-08-19T14:20:48;4.25;;;1.10;;
16440;SDS011;8330;-33.858;151.184;2022-08-19T14:23:18;2.05;;;1.10;;
16440;SDS011;8330;-33.858;151.184;2022-08-19T14:25:51;4.38;;;1.10;;
16440;SDS011;8330;-33.858;151.184;2022-08-19T14:28:22;3.45;;;1.10;;
16440;SDS011;8330;-33.858;151.184;2022-08-19T14:30:54;2.22;;;1.00;;
16440;SDS011;8330;-33.858;151.184;2022-08-19T14:33:26;3.50;;;1.10;;
16440;SDS011;8330;-33.858;151.184;2022-08-19T14:35:58;3.28;;;1.42;;
16440;SDS011;8330;-33.858;151.184;2022-08-19T14:38:28;4.20;;;1.20;;
16440;SDS011;8330;-33.858;151.184;2022-08-19T14:41:08;3.78;;;1.35;;
16440;SDS011;8330;-33.858;151.184;2022-08-19T14:43:42;2.38;;;1.20;;
16440;SDS011;8330;-33.858;151.184;2022-08-19T14:46:15;3.83;;;1.30;;
16440;SDS011;8330;-33.858;151.184;2022-08-19T14:48:48;2.47;;;1.25;;
16440;SDS011;8330;-33.858;151.184;2022-08-19T14:51:19;3.45;;;1.10;;
16440;SDS011;8330;-33.858;151.184;2022-08-19T14:53:51;4.55;;;1.40;;